sensor_id;sensor_type;location;lat;lon;timestamp;P1;durP1;ratioP1;P2;durP2;ratioP2
18574;SDS011;9417;16.484;102.872;2024-03-29T00:00:05;83.68;;;75.22;;
18574;SDS011;9417;16.484;102.872;2024-03-29T00:02:07;82.28;;;73.90;;
18574;SDS011;9417;16.484;102.872;2024-03-29T00:04:09;84.28;;;75.35;;
18574;SDS011;9417;16.484;102.872;2024-03-29T00:08:12;77.30;;;69.20;;
18574;SDS011;9417;16.484;102.872;2024-03-29T00:12:15;85.40;;;76.40;;
18574;SDS011;9417;16.484;102.872;2024-03-29T00:16:18;81.20;;;72.77;;
18574;SDS011;9417;16.484;102.872;2024-03-29T00:18:22;74.75;;;66.80;;
18574;SDS011;9417;16.484;102.872;2024-03-29T00:20:24;75.15;;;67.47;;
18574;SDS011;9417;16.484;102.872;2024-03-29T00:22:27;72.68;;;65.32;;
18574;SDS011;9417;16.484;102.872;2024-03-29T00:24:29;88.90;;;79.70;;
18574;SDS011;9417;16.484;102.872;2024-03-29T00:26:31;89.38;;;80.63;;
18574;SDS011;9417;16.484;102.872;2024-03-29T00:28:32;76.07;;;68.20;;
18574;SDS011;9417;16.484;102.872;2024-03-29T00:30:34;74.75;;;67.18;;
18574;SDS011;9417;16.484;102.872;2024-03-29T00:32:36;78.28;;;70.18;;
18574;SDS011;9417;16.484;102.872;2024-03-29T00:34:38;78.93;;;70.63;;
18574;SDS011;9417;16.484;102.872;2024-03-29T00:36:39;84.30;;;76.00;;
18574;SDS011;9417;16.484;102.872;2024-03-29T00:38:41;71.80;;;64.55;;
18574;SDS011;9417;16.484;102.872;2024-03-29T00:40:43;81.63;;;73.47;;
18574;SDS011;9417;16.484;102.872;2024-03-29T00:44:46;84.55;;;76.07;;
18574;SDS011;9417;16.484;102.872;2024-03-29T00:46:48;79.45;;;71.22;;
18574;SDS011;9417;16.484;102.872;2024-03-29T00:48:50;82.97;;;74.63;;
18574;SDS011;9417;16.484;102.872;2024-03-29T00:50:52;71.57;;;63.97;;
18574;SDS011;9417;16.484;102.872;2024-03-29T00:52:54;72.18;;;64.47;;
18574;SDS011;9417;16.484;102.872;2024-03-29T00:54:56;73.78;;;66.15;;
18574;SDS011;9417;16.484;102.872;2024-03-29T00:56:58;73.78;;;65.93;;
18574;SDS011;9417;16.484;102.872;2024-03-29T00:59:00;71.35;;;63.72;;
18574;SDS011;9417;16.484;102.872;2024-03-29T01:01:02;71.05;;;63.35;;
18574;SDS011;9417;16.484;102.872;2024-03-29T01:03:04;70.80;;;63.55;;
18574;SDS011;9417;16.484;102.872;2024-03-29T01:05:05;66.95;;;60.10;;
18574;SDS011;9417;16.484;102.872;2024-03-29T01:07:08;69.45;;;62.22;;
18574;SDS011;9417;16.484;102.872;2024-03-29T01:09:09;70.43;;;59.45;;
18574;SDS011;9417;16.484;102.872;2024-03-29T01:11:11;70.45;;;63.13;;
18574;SDS011;9417;16.484;102.872;2024-03-29T01:13:13;75.13;;;67.72;;
18574;SDS011;9417;16.484;102.872;2024-03-29T01:15:15;65.18;;;57.25;;
18574;SDS011;9417;16.484;102.872;2024-03-29T01:17:17;62.50;;;55.90;;
18574;SDS011;9417;16.484;102.872;2024-03-29T01:19:18;58.00;;;52.13;;
18574;SDS011;9417;16.484;102.872;2024-03-29T01:21:20;58.70;;;52.58;;
18574;SDS011;9417;16.484;102.872;2024-03-29T01:23:22;59.75;;;53.47;;
18574;SDS011;9417;16.484;102.872;2024-03-29T01:25:24;56.97;;;51.08;;
18574;SDS011;9417;16.484;102.872;2024-03-29T01:27:25;61.38;;;54.72;;
18574;SDS011;9417;16.484;102.872;2024-03-29T01:31:28;61.67;;;55.63;;
18574;SDS011;9417;16.484;102.872;2024-03-29T01:33:30;58.95;;;52.65;;
18574;SDS011;9417;16.484;102.872;2024-03-29T01:35:37;61.50;;;55.10;;
18574;SDS011;9417;16.484;102.872;2024-03-29T01:37:39;62.80;;;56.25;;
18574;SDS011;9417;16.484;102.872;2024-03-29T01:39:41;61.38;;;54.88;;
18574;SDS011;9417;16.484;102.872;2024-03-29T01:41:43;58.33;;;52.55;;
18574;SDS011;9417;16.484;102.872;2024-03-29T01:45:47;55.95;;;50.20;;
18574;SDS011;9417;16.484;102.872;2024-03-29T01:47:51;53.15;;;47.85;;
18574;SDS011;9417;16.484;102.872;2024-03-29T01:49:53;53.20;;;47.88;;
18574;SDS011;9417;16.484;102.872;2024-03-29T01:51:55;53.35;;;47.95;;
18574;SDS011;9417;16.484;102.872;2024-03-29T01:53:57;54.83;;;49.38;;
18574;SDS011;9417;16.484;102.872;2024-03-29T01:56:00;56.03;;;50.08;;
18574;SDS011;9417;16.484;102.872;2024-03-29T01:58:03;55.58;;;48.72;;
18574;SDS011;9417;16.484;102.872;2024-03-29T02:00:05;54.97;;;49.28;;
18574;SDS011;9417;16.484;102.872;2024-03-29T02:02:08;53.38;;;47.90;;
18574;SDS011;9417;16.484;102.872;2024-03-29T02:04:11;52.47;;;46.97;;
18574;SDS011;9417;16.484;102.872;2024-03-29T02:06:14;52.92;;;47.20;;
18574;SDS011;9417;16.484;102.872;2024-03-29T02:08:17;51.67;;;46.58;;
18574;SDS011;9417;16.484;102.872;2024-03-29T02:10:18;49.30;;;44.25;;
18574;SDS011;9417;16.484;102.872;2024-03-29T02:12:20;47.10;;;42.30;;
18574;SDS011;9417;16.484;102.872;2024-03-29T02:14:22;50.22;;;44.58;;
18574;SDS011;9417;16.484;102.872;2024-03-29T02:16:25;51.00;;;45.45;;
18574;SDS011;9417;16.484;102.872;2024-03-29T02:18:27;50.33;;;45.17;;
18574;SDS011;9417;16.484;102.872;2024-03-29T02:20:28;47.67;;;42.22;;
18574;SDS011;9417;16.484;102.872;2024-03-29T02:22:31;51.88;;;41.67;;
18574;SDS011;9417;16.484;102.872;2024-03-29T02:24:37;44.92;;;40.08;;
18574;SDS011;9417;16.484;102.872;2024-03-29T02:26:39;44.40;;;39.80;;
18574;SDS011;9417;16.484;102.872;2024-03-29T02:28:42;45.67;;;38.63;;
18574;SDS011;9417;16.484;102.872;2024-03-29T02:30:44;41.70;;;37.53;;
18574;SDS011;9417;16.484;102.872;2024-03-29T02:32:46;41.28;;;37.03;;
18574;SDS011;9417;16.484;102.872;2024-03-29T02:34:48;41.72;;;37.28;;
18574;SDS011;9417;16.484;102.872;2024-03-29T02:36:50;43.20;;;38.58;;
18574;SDS011;9417;16.484;102.872;2024-03-29T02:38:51;44.50;;;39.97;;
18574;SDS011;9417;16.484;102.872;2024-03-29T02:40:53;44.17;;;39.72;;
18574;SDS011;9417;16.484;102.872;2024-03-29T02:42:55;42.15;;;37.75;;
18574;SDS011;9417;16.484;102.872;2024-03-29T02:44:57;39.20;;;35.30;;
18574;SDS011;9417;16.484;102.872;2024-03-29T02:46:59;37.00;;;33.40;;
18574;SDS011;9417;16.484;102.872;2024-03-29T02:49:01;36.30;;;32.75;;
18574;SDS011;9417;16.484;102.872;2024-03-29T02:51:02;38.58;;;34.55;;
18574;SDS011;9417;16.484;102.872;2024-03-29T02:53:04;38.92;;;34.83;;
18574;SDS011;9417;16.484;102.872;2024-03-29T02:55:06;37.33;;;33.47;;
18574;SDS011;9417;16.484;102.872;2024-03-29T02:57:08;35.85;;;32.15;;
18574;SDS011;9417;16.484;102.872;2024-03-29T02:59:10;34.20;;;30.80;;
18574;SDS011;9417;16.484;102.872;2024-03-29T03:01:11;34.88;;;31.48;;
18574;SDS011;9417;16.484;102.872;2024-03-29T03:03:14;33.15;;;29.75;;
18574;SDS011;9417;16.484;102.872;2024-03-29T03:05:17;34.05;;;30.45;;
18574;SDS011;9417;16.484;102.872;2024-03-29T03:07:19;34.05;;;30.55;;
18574;SDS011;9417;16.484;102.872;2024-03-29T03:09:39;34.50;;;31.17;;
18574;SDS011;9417;16.484;102.872;2024-03-29T03:11:59;33.85;;;30.33;;
18574;SDS011;9417;16.484;102.872;2024-03-29T03:14:01;32.83;;;29.63;;
18574;SDS011;9417;16.484;102.872;2024-03-29T03:16:02;31.30;;;28.30;;
18574;SDS011;9417;16.484;102.872;2024-03-29T03:18:05;33.08;;;29.70;;
18574;SDS011;9417;16.484;102.872;2024-03-29T03:20:07;30.45;;;27.17;;
18574;SDS011;9417;16.484;102.872;2024-03-29T03:22:09;32.67;;;29.67;;
18574;SDS011;9417;16.484;102.872;2024-03-29T03:24:11;33.25;;;30.02;;
18574;SDS011;9417;16.484;102.872;2024-03-29T03:26:13;31.67;;;28.75;;
18574;SDS011;9417;16.484;102.872;2024-03-29T03:28:14;31.80;;;28.73;;
18574;SDS011;9417;16.484;102.872;2024-03-29T03:30:16;30.92;;;28.00;;
18574;SDS011;9417;16.484;102.872;2024-03-29T03:32:18;32.45;;;29.23;;
18574;SDS011;9417;16.484;102.872;2024-03-29T03:34:20;32.53;;;28.85;;
18574;SDS011;9417;16.484;102.872;2024-03-29T03:36:21;32.40;;;29.20;;
18574;SDS011;9417;16.484;102.872;2024-03-29T03:38:23;32.45;;;29.10;;
18574;SDS011;9417;16.484;102.872;2024-03-29T03:40:25;30.95;;;27.92;;
18574;SDS011;9417;16.484;102.872;2024-03-29T03:42:29;31.90;;;28.67;;
18574;SDS011;9417;16.484;102.872;2024-03-29T03:44:31;30.92;;;27.75;;
18574;SDS011;9417;16.484;102.872;2024-03-29T03:46:33;32.08;;;28.85;;
18574;SDS011;9417;16.484;102.872;2024-03-29T03:48:35;30.20;;;27.00;;
18574;SDS011;9417;16.484;102.872;2024-03-29T03:50:37;31.65;;;28.58;;
18574;SDS011;9417;16.484;102.872;2024-03-29T03:52:39;30.38;;;27.35;;
18574;SDS011;9417;16.484;102.872;2024-03-29T03:54:40;30.73;;;27.73;;
18574;SDS011;9417;16.484;102.872;2024-03-29T03:56:42;30.92;;;27.80;;
18574;SDS011;9417;16.484;102.872;2024-03-29T03:58:44;30.25;;;27.35;;
18574;SDS011;9417;16.484;102.872;2024-03-29T04:00:46;30.85;;;27.95;;
18574;SDS011;9417;16.484;102.872;2024-03-29T04:02:48;30.75;;;27.85;;
18574;SDS011;9417;16.484;102.872;2024-03-29T04:04:52;30.77;;;27.77;;
18574;SDS011;9417;16.484;102.872;2024-03-29T04:06:53;31.80;;;28.55;;
18574;SDS011;9417;16.484;102.872;2024-03-29T04:08:55;32.40;;;28.95;;
18574;SDS011;9417;16.484;102.872;2024-03-29T04:10:57;52.97;;;36.83;;
18574;SDS011;9417;16.484;102.872;2024-03-29T04:13:03;45.63;;;32.60;;
18574;SDS011;9417;16.484;102.872;2024-03-29T04:15:05;31.13;;;27.75;;
18574;SDS011;9417;16.484;102.872;2024-03-29T04:17:07;39.33;;;30.27;;
18574;SDS011;9417;16.484;102.872;2024-03-29T04:19:09;65.45;;;39.40;;
18574;SDS011;9417;16.484;102.872;2024-03-29T04:21:11;46.80;;;35.03;;
18574;SDS011;9417;16.484;102.872;2024-03-29T04:23:12;34.35;;;30.58;;
18574;SDS011;9417;16.484;102.872;2024-03-29T04:25:14;83.18;;;47.08;;
18574;SDS011;9417;16.484;102.872;2024-03-29T04:27:16;39.50;;;32.35;;
18574;SDS011;9417;16.484;102.872;2024-03-29T04:29:17;31.98;;;28.75;;
18574;SDS011;9417;16.484;102.872;2024-03-29T04:31:19;32.30;;;29.02;;
18574;SDS011;9417;16.484;102.872;2024-03-29T04:33:21;33.45;;;30.10;;
18574;SDS011;9417;16.484;102.872;2024-03-29T04:35:23;35.25;;;31.55;;
18574;SDS011;9417;16.484;102.872;2024-03-29T04:37:25;32.85;;;29.52;;
18574;SDS011;9417;16.484;102.872;2024-03-29T04:39:27;31.95;;;28.65;;
18574;SDS011;9417;16.484;102.872;2024-03-29T04:41:29;30.63;;;27.60;;
18574;SDS011;9417;16.484;102.872;2024-03-29T04:43:34;33.25;;;30.17;;
18574;SDS011;9417;16.484;102.872;2024-03-29T04:45:36;32.28;;;29.08;;
18574;SDS011;9417;16.484;102.872;2024-03-29T04:47:38;33.03;;;29.77;;
18574;SDS011;9417;16.484;102.872;2024-03-29T04:49:40;32.78;;;29.38;;
18574;SDS011;9417;16.484;102.872;2024-03-29T04:51:41;32.33;;;29.20;;
18574;SDS011;9417;16.484;102.872;2024-03-29T04:53:43;32.63;;;29.52;;
18574;SDS011;9417;16.484;102.872;2024-03-29T04:55:45;33.42;;;30.30;;
18574;SDS011;9417;16.484;102.872;2024-03-29T04:57:48;35.03;;;31.70;;
18574;SDS011;9417;16.484;102.872;2024-03-29T04:59:50;32.60;;;29.52;;
18574;SDS011;9417;16.484;102.872;2024-03-29T05:01:52;35.00;;;31.73;;
18574;SDS011;9417;16.484;102.872;2024-03-29T05:03:55;35.33;;;31.88;;
18574;SDS011;9417;16.484;102.872;2024-03-29T05:05:57;34.90;;;31.58;;
18574;SDS011;9417;16.484;102.872;2024-03-29T05:07:59;35.60;;;31.90;;
18574;SDS011;9417;16.484;102.872;2024-03-29T05:10:01;36.13;;;32.65;;
18574;SDS011;9417;16.484;102.872;2024-03-29T05:12:07;35.58;;;32.13;;
18574;SDS011;9417;16.484;102.872;2024-03-29T05:14:09;35.53;;;32.08;;
18574;SDS011;9417;16.484;102.872;2024-03-29T05:16:10;33.92;;;30.73;;
18574;SDS011;9417;16.484;102.872;2024-03-29T05:18:12;36.30;;;32.80;;
18574;SDS011;9417;16.484;102.872;2024-03-29T05:20:14;37.88;;;34.20;;
18574;SDS011;9417;16.484;102.872;2024-03-29T05:22:16;37.25;;;33.28;;
18574;SDS011;9417;16.484;102.872;2024-03-29T05:24:18;35.38;;;31.85;;
18574;SDS011;9417;16.484;102.872;2024-03-29T05:26:20;34.13;;;30.83;;
18574;SDS011;9417;16.484;102.872;2024-03-29T05:28:22;33.95;;;30.85;;
18574;SDS011;9417;16.484;102.872;2024-03-29T05:30:23;34.60;;;31.45;;
18574;SDS011;9417;16.484;102.872;2024-03-29T05:32:25;35.05;;;31.83;;
18574;SDS011;9417;16.484;102.872;2024-03-29T05:34:29;34.10;;;30.73;;
18574;SDS011;9417;16.484;102.872;2024-03-29T05:36:30;34.85;;;31.63;;
18574;SDS011;9417;16.484;102.872;2024-03-29T05:38:32;34.25;;;30.60;;
18574;SDS011;9417;16.484;102.872;2024-03-29T05:40:34;34.88;;;31.65;;
18574;SDS011;9417;16.484;102.872;2024-03-29T05:42:36;35.58;;;32.15;;
18574;SDS011;9417;16.484;102.872;2024-03-29T05:44:38;32.53;;;29.73;;
18574;SDS011;9417;16.484;102.872;2024-03-29T05:46:39;33.67;;;30.63;;
18574;SDS011;9417;16.484;102.872;2024-03-29T05:48:41;33.85;;;30.65;;
18574;SDS011;9417;16.484;102.872;2024-03-29T05:50:43;34.28;;;30.73;;
18574;SDS011;9417;16.484;102.872;2024-03-29T05:52:45;32.10;;;29.10;;
18574;SDS011;9417;16.484;102.872;2024-03-29T05:54:47;32.63;;;29.27;;
18574;SDS011;9417;16.484;102.872;2024-03-29T05:56:49;34.03;;;30.67;;
18574;SDS011;9417;16.484;102.872;2024-03-29T05:58:51;32.03;;;28.83;;
18574;SDS011;9417;16.484;102.872;2024-03-29T06:00:54;32.78;;;29.48;;
18574;SDS011;9417;16.484;102.872;2024-03-29T06:02:55;33.05;;;29.77;;
18574;SDS011;9417;16.484;102.872;2024-03-29T06:04:58;32.03;;;29.05;;
18574;SDS011;9417;16.484;102.872;2024-03-29T06:07:00;31.83;;;28.73;;
18574;SDS011;9417;16.484;102.872;2024-03-29T06:09:05;32.13;;;29.23;;
18574;SDS011;9417;16.484;102.872;2024-03-29T06:11:07;33.05;;;29.95;;
18574;SDS011;9417;16.484;102.872;2024-03-29T06:13:09;33.25;;;30.10;;
18574;SDS011;9417;16.484;102.872;2024-03-29T06:15:28;32.25;;;29.33;;
18574;SDS011;9417;16.484;102.872;2024-03-29T06:17:47;32.85;;;29.70;;
18574;SDS011;9417;16.484;102.872;2024-03-29T06:19:53;33.28;;;30.13;;
18574;SDS011;9417;16.484;102.872;2024-03-29T06:21:57;32.72;;;29.45;;
18574;SDS011;9417;16.484;102.872;2024-03-29T06:23:58;32.97;;;29.90;;
18574;SDS011;9417;16.484;102.872;2024-03-29T06:26:00;32.10;;;28.90;;
18574;SDS011;9417;16.484;102.872;2024-03-29T06:28:02;33.25;;;30.02;;
18574;SDS011;9417;16.484;102.872;2024-03-29T06:30:04;31.85;;;28.63;;
18574;SDS011;9417;16.484;102.872;2024-03-29T06:32:08;32.03;;;29.13;;
18574;SDS011;9417;16.484;102.872;2024-03-29T06:34:10;31.58;;;28.58;;
18574;SDS011;9417;16.484;102.872;2024-03-29T06:36:12;32.13;;;29.20;;
18574;SDS011;9417;16.484;102.872;2024-03-29T06:38:13;31.17;;;28.48;;
18574;SDS011;9417;16.484;102.872;2024-03-29T06:40:15;31.70;;;28.40;;
18574;SDS011;9417;16.484;102.872;2024-03-29T06:42:17;31.85;;;28.85;;
18574;SDS011;9417;16.484;102.872;2024-03-29T06:44:19;33.72;;;30.75;;
18574;SDS011;9417;16.484;102.872;2024-03-29T06:46:21;31.88;;;28.92;;
18574;SDS011;9417;16.484;102.872;2024-03-29T06:48:23;31.38;;;28.48;;
18574;SDS011;9417;16.484;102.872;2024-03-29T06:50:25;30.63;;;27.58;;
18574;SDS011;9417;16.484;102.872;2024-03-29T06:52:26;28.80;;;26.10;;
18574;SDS011;9417;16.484;102.872;2024-03-29T06:54:29;30.42;;;27.48;;
18574;SDS011;9417;16.484;102.872;2024-03-29T06:56:32;29.65;;;26.92;;
18574;SDS011;9417;16.484;102.872;2024-03-29T06:58:34;30.67;;;27.88;;
18574;SDS011;9417;16.484;102.872;2024-03-29T07:00:37;29.15;;;26.35;;
18574;SDS011;9417;16.484;102.872;2024-03-29T07:02:38;29.55;;;26.85;;
18574;SDS011;9417;16.484;102.872;2024-03-29T07:04:40;30.33;;;27.48;;
18574;SDS011;9417;16.484;102.872;2024-03-29T07:06:42;29.55;;;26.67;;
18574;SDS011;9417;16.484;102.872;2024-03-29T07:08:47;30.15;;;27.15;;
18574;SDS011;9417;16.484;102.872;2024-03-29T07:10:57;29.08;;;26.08;;
18574;SDS011;9417;16.484;102.872;2024-03-29T07:13:01;30.25;;;27.40;;
18574;SDS011;9417;16.484;102.872;2024-03-29T07:15:03;29.95;;;27.13;;
18574;SDS011;9417;16.484;102.872;2024-03-29T07:17:05;28.05;;;25.55;;
18574;SDS011;9417;16.484;102.872;2024-03-29T07:19:07;29.77;;;27.08;;
18574;SDS011;9417;16.484;102.872;2024-03-29T07:21:09;29.30;;;26.50;;
18574;SDS011;9417;16.484;102.872;2024-03-29T07:23:11;29.63;;;26.80;;
18574;SDS011;9417;16.484;102.872;2024-03-29T07:25:13;31.23;;;28.23;;
18574;SDS011;9417;16.484;102.872;2024-03-29T07:27:15;30.58;;;27.60;;
18574;SDS011;9417;16.484;102.872;2024-03-29T07:29:18;30.33;;;27.55;;
18574;SDS011;9417;16.484;102.872;2024-03-29T07:31:19;31.67;;;28.55;;
18574;SDS011;9417;16.484;102.872;2024-03-29T07:33:24;29.88;;;26.98;;
18574;SDS011;9417;16.484;102.872;2024-03-29T07:35:27;29.98;;;27.08;;
18574;SDS011;9417;16.484;102.872;2024-03-29T07:37:30;31.42;;;28.50;;
18574;SDS011;9417;16.484;102.872;2024-03-29T07:39:32;29.92;;;27.30;;
18574;SDS011;9417;16.484;102.872;2024-03-29T07:41:34;30.55;;;27.63;;
18574;SDS011;9417;16.484;102.872;2024-03-29T07:43:39;30.98;;;28.23;;
18574;SDS011;9417;16.484;102.872;2024-03-29T07:45:42;31.40;;;28.45;;
18574;SDS011;9417;16.484;102.872;2024-03-29T07:47:46;31.30;;;28.30;;
18574;SDS011;9417;16.484;102.872;2024-03-29T07:49:53;29.85;;;27.05;;
18574;SDS011;9417;16.484;102.872;2024-03-29T07:51:54;30.80;;;27.85;;
18574;SDS011;9417;16.484;102.872;2024-03-29T07:53:56;29.60;;;26.85;;
18574;SDS011;9417;16.484;102.872;2024-03-29T07:55:58;29.73;;;26.98;;
18574;SDS011;9417;16.484;102.872;2024-03-29T07:58:01;31.30;;;28.17;;
18574;SDS011;9417;16.484;102.872;2024-03-29T08:00:04;31.17;;;28.05;;
18574;SDS011;9417;16.484;102.872;2024-03-29T08:02:06;30.02;;;27.08;;
18574;SDS011;9417;16.484;102.872;2024-03-29T08:04:08;31.52;;;28.27;;
18574;SDS011;9417;16.484;102.872;2024-03-29T08:06:09;28.85;;;26.20;;
18574;SDS011;9417;16.484;102.872;2024-03-29T08:08:11;28.40;;;25.50;;
18574;SDS011;9417;16.484;102.872;2024-03-29T08:10:13;30.42;;;27.55;;
18574;SDS011;9417;16.484;102.872;2024-03-29T08:12:15;31.52;;;28.65;;
18574;SDS011;9417;16.484;102.872;2024-03-29T08:14:17;30.98;;;28.17;;
18574;SDS011;9417;16.484;102.872;2024-03-29T08:16:19;28.67;;;26.17;;
18574;SDS011;9417;16.484;102.872;2024-03-29T08:18:20;29.27;;;26.42;;
18574;SDS011;9417;16.484;102.872;2024-03-29T08:20:22;28.10;;;25.63;;
18574;SDS011;9417;16.484;102.872;2024-03-29T08:22:29;28.50;;;25.80;;
18574;SDS011;9417;16.484;102.872;2024-03-29T08:24:33;28.83;;;26.23;;
18574;SDS011;9417;16.484;102.872;2024-03-29T08:26:35;28.23;;;25.30;;
18574;SDS011;9417;16.484;102.872;2024-03-29T08:28:37;30.55;;;27.70;;
18574;SDS011;9417;16.484;102.872;2024-03-29T08:30:39;32.72;;;29.83;;
18574;SDS011;9417;16.484;102.872;2024-03-29T08:32:40;32.25;;;29.38;;
18574;SDS011;9417;16.484;102.872;2024-03-29T08:34:42;32.72;;;29.92;;
18574;SDS011;9417;16.484;102.872;2024-03-29T08:36:44;30.35;;;27.55;;
18574;SDS011;9417;16.484;102.872;2024-03-29T08:38:46;28.55;;;25.73;;
18574;SDS011;9417;16.484;102.872;2024-03-29T08:40:47;33.20;;;30.25;;
18574;SDS011;9417;16.484;102.872;2024-03-29T08:42:50;28.70;;;26.17;;
18574;SDS011;9417;16.484;102.872;2024-03-29T08:44:51;29.05;;;26.15;;
18574;SDS011;9417;16.484;102.872;2024-03-29T08:46:53;28.70;;;25.80;;
18574;SDS011;9417;16.484;102.872;2024-03-29T08:48:57;27.75;;;24.95;;
18574;SDS011;9417;16.484;102.872;2024-03-29T08:50:59;28.55;;;25.65;;
18574;SDS011;9417;16.484;102.872;2024-03-29T08:53:01;29.05;;;26.15;;
18574;SDS011;9417;16.484;102.872;2024-03-29T08:55:04;29.90;;;26.90;;
18574;SDS011;9417;16.484;102.872;2024-03-29T08:57:06;29.58;;;26.67;;
18574;SDS011;9417;16.484;102.872;2024-03-29T08:59:08;28.17;;;25.58;;
18574;SDS011;9417;16.484;102.872;2024-03-29T09:01:12;31.20;;;28.55;;
18574;SDS011;9417;16.484;102.872;2024-03-29T09:03:15;30.92;;;28.00;;
18574;SDS011;9417;16.484;102.872;2024-03-29T09:05:17;31.33;;;28.63;;
18574;SDS011;9417;16.484;102.872;2024-03-29T09:07:19;30.25;;;27.23;;
18574;SDS011;9417;16.484;102.872;2024-03-29T09:09:22;31.92;;;28.67;;
18574;SDS011;9417;16.484;102.872;2024-03-29T09:11:25;31.92;;;28.83;;
18574;SDS011;9417;16.484;102.872;2024-03-29T09:13:26;32.95;;;29.73;;
18574;SDS011;9417;16.484;102.872;2024-03-29T09:15:28;31.50;;;28.23;;
18574;SDS011;9417;16.484;102.872;2024-03-29T09:17:30;30.00;;;27.13;;
18574;SDS011;9417;16.484;102.872;2024-03-29T09:19:32;31.25;;;27.88;;
18574;SDS011;9417;16.484;102.872;2024-03-29T09:21:33;32.85;;;29.63;;
18574;SDS011;9417;16.484;102.872;2024-03-29T09:23:36;32.63;;;29.00;;
18574;SDS011;9417;16.484;102.872;2024-03-29T09:25:41;32.35;;;29.25;;
18574;SDS011;9417;16.484;102.872;2024-03-29T09:27:47;34.90;;;31.40;;
18574;SDS011;9417;16.484;102.872;2024-03-29T09:29:49;35.30;;;31.63;;
18574;SDS011;9417;16.484;102.872;2024-03-29T09:31:51;34.88;;;31.58;;
18574;SDS011;9417;16.484;102.872;2024-03-29T09:33:52;37.47;;;33.88;;
18574;SDS011;9417;16.484;102.872;2024-03-29T09:35:58;36.42;;;32.60;;
18574;SDS011;9417;16.484;102.872;2024-03-29T09:37:59;35.17;;;31.85;;
18574;SDS011;9417;16.484;102.872;2024-03-29T09:40:04;36.65;;;32.75;;
18574;SDS011;9417;16.484;102.872;2024-03-29T09:42:07;36.95;;;32.78;;
18574;SDS011;9417;16.484;102.872;2024-03-29T09:44:16;37.30;;;33.45;;
18574;SDS011;9417;16.484;102.872;2024-03-29T09:46:21;37.25;;;33.45;;
18574;SDS011;9417;16.484;102.872;2024-03-29T09:48:24;39.42;;;35.45;;
18574;SDS011;9417;16.484;102.872;2024-03-29T09:50:27;37.53;;;33.40;;
18574;SDS011;9417;16.484;102.872;2024-03-29T09:52:30;36.35;;;32.60;;
18574;SDS011;9417;16.484;102.872;2024-03-29T09:54:33;35.72;;;31.33;;
18574;SDS011;9417;16.484;102.872;2024-03-29T09:56:35;39.40;;;34.88;;
18574;SDS011;9417;16.484;102.872;2024-03-29T09:58:38;39.55;;;33.10;;
18574;SDS011;9417;16.484;102.872;2024-03-29T10:00:40;42.10;;;37.40;;
18574;SDS011;9417;16.484;102.872;2024-03-29T10:02:42;43.03;;;38.45;;
18574;SDS011;9417;16.484;102.872;2024-03-29T10:04:45;47.00;;;41.95;;
18574;SDS011;9417;16.484;102.872;2024-03-29T10:06:49;43.78;;;39.10;;
18574;SDS011;9417;16.484;102.872;2024-03-29T10:08:52;43.45;;;38.80;;
18574;SDS011;9417;16.484;102.872;2024-03-29T10:10:58;61.13;;;54.63;;
18574;SDS011;9417;16.484;102.872;2024-03-29T10:13:00;59.63;;;53.35;;
18574;SDS011;9417;16.484;102.872;2024-03-29T10:15:03;43.70;;;38.97;;
18574;SDS011;9417;16.484;102.872;2024-03-29T10:17:09;63.65;;;53.92;;
18574;SDS011;9417;16.484;102.872;2024-03-29T10:19:11;153.73;;;112.50;;
18574;SDS011;9417;16.484;102.872;2024-03-29T10:21:13;165.70;;;121.07;;
18574;SDS011;9417;16.484;102.872;2024-03-29T10:23:15;113.90;;;85.70;;
18574;SDS011;9417;16.484;102.872;2024-03-29T10:25:17;46.35;;;39.67;;
18574;SDS011;9417;16.484;102.872;2024-03-29T10:27:20;41.78;;;37.30;;
18574;SDS011;9417;16.484;102.872;2024-03-29T10:29:27;42.30;;;37.95;;
18574;SDS011;9417;16.484;102.872;2024-03-29T10:31:35;39.72;;;35.53;;
18574;SDS011;9417;16.484;102.872;2024-03-29T10:33:37;38.40;;;34.05;;
18574;SDS011;9417;16.484;102.872;2024-03-29T10:35:45;36.55;;;33.00;;
18574;SDS011;9417;16.484;102.872;2024-03-29T10:37:47;38.22;;;34.58;;
18574;SDS011;9417;16.484;102.872;2024-03-29T10:39:50;40.45;;;36.25;;
18574;SDS011;9417;16.484;102.872;2024-03-29T10:41:51;44.78;;;39.33;;
18574;SDS011;9417;16.484;102.872;2024-03-29T10:43:54;44.28;;;39.88;;
18574;SDS011;9417;16.484;102.872;2024-03-29T10:45:59;44.58;;;40.22;;
18574;SDS011;9417;16.484;102.872;2024-03-29T10:48:02;44.08;;;39.35;;
18574;SDS011;9417;16.484;102.872;2024-03-29T10:50:08;45.90;;;39.97;;
18574;SDS011;9417;16.484;102.872;2024-03-29T10:52:13;64.85;;;57.97;;
18574;SDS011;9417;16.484;102.872;2024-03-29T10:54:17;83.03;;;74.47;;
18574;SDS011;9417;16.484;102.872;2024-03-29T10:56:20;80.90;;;72.35;;
18574;SDS011;9417;16.484;102.872;2024-03-29T10:58:29;52.53;;;47.45;;
18574;SDS011;9417;16.484;102.872;2024-03-29T11:00:34;54.05;;;48.05;;
18574;SDS011;9417;16.484;102.872;2024-03-29T11:04:48;51.92;;;46.78;;
18574;SDS011;9417;16.484;102.872;2024-03-29T11:06:51;56.95;;;51.03;;
18574;SDS011;9417;16.484;102.872;2024-03-29T11:08:57;57.15;;;51.25;;
18574;SDS011;9417;16.484;102.872;2024-03-29T11:11:02;69.72;;;62.90;;
18574;SDS011;9417;16.484;102.872;2024-03-29T11:15:20;54.97;;;49.17;;
18574;SDS011;9417;16.484;102.872;2024-03-29T11:17:29;51.15;;;45.85;;
18574;SDS011;9417;16.484;102.872;2024-03-29T11:19:34;50.72;;;45.22;;
18574;SDS011;9417;16.484;102.872;2024-03-29T11:21:36;57.92;;;49.60;;
18574;SDS011;9417;16.484;102.872;2024-03-29T11:23:39;53.45;;;47.15;;
18574;SDS011;9417;16.484;102.872;2024-03-29T11:25:41;55.90;;;50.22;;
18574;SDS011;9417;16.484;102.872;2024-03-29T11:27:44;51.92;;;45.25;;
18574;SDS011;9417;16.484;102.872;2024-03-29T11:29:49;51.72;;;45.72;;
18574;SDS011;9417;16.484;102.872;2024-03-29T11:31:58;54.58;;;46.78;;
18574;SDS011;9417;16.484;102.872;2024-03-29T11:34:00;56.72;;;50.47;;
18574;SDS011;9417;16.484;102.872;2024-03-29T11:36:15;58.13;;;50.45;;
18574;SDS011;9417;16.484;102.872;2024-03-29T11:38:31;56.92;;;51.03;;
18574;SDS011;9417;16.484;102.872;2024-03-29T11:40:35;54.58;;;48.85;;
18574;SDS011;9417;16.484;102.872;2024-03-29T11:42:37;55.13;;;47.38;;
18574;SDS011;9417;16.484;102.872;2024-03-29T11:44:48;53.30;;;46.05;;
18574;SDS011;9417;16.484;102.872;2024-03-29T11:46:50;63.78;;;45.75;;
18574;SDS011;9417;16.484;102.872;2024-03-29T11:48:52;54.17;;;44.50;;
18574;SDS011;9417;16.484;102.872;2024-03-29T11:50:54;49.50;;;43.95;;
18574;SDS011;9417;16.484;102.872;2024-03-29T11:52:56;48.63;;;43.53;;
18574;SDS011;9417;16.484;102.872;2024-03-29T11:55:02;52.58;;;47.03;;
18574;SDS011;9417;16.484;102.872;2024-03-29T11:57:04;49.55;;;44.58;;
18574;SDS011;9417;16.484;102.872;2024-03-29T11:59:06;47.97;;;42.88;;
18574;SDS011;9417;16.484;102.872;2024-03-29T12:01:08;46.90;;;39.70;;
18574;SDS011;9417;16.484;102.872;2024-03-29T12:03:18;44.85;;;40.15;;